Time;durP1;ratioP1;P1;durP2;ratioP2;P2;SDS_P1;SDS_P2;PMS_P1;PMS_P2;Temp;Humidity;BMP_temperature;BMP_pressure;BME280_temperature;BME280_humidity;BME280_pressure;Samples;Min_cycle;Max_cycle;Signal;HPM_P1;HPM_P2
2021/06/27 00:00:27;;;;;;;4.72;3.70;;;;;;;23.93;48.84;99823.25;4334939;33;34587;-89
2021/06/27 00:03:16;;;;;;;6.30;3.67;;;;;;;23.95;48.83;99831.13;4329215;33;34130;-90
2021/06/27 00:05:43;;;;;;;5.87;3.75;;;;;;;23.88;49.27;99833.25;4321951;33;33795;-90
2021/06/27 00:08:12;;;;;;;7.35;3.80;;;;;;;23.87;49.54;99831.53;4333984;33;33444;-90
2021/06/27 00:10:42;;;;;;;7.37;3.62;;;;;;;23.88;49.44;99837.69;4334126;33;34565;-90
2021/06/27 00:13:10;;;;;;;4.43;3.95;;;;;;;23.86;49.34;99840.44;4336374;33;33537;-90
2021/06/27 00:15:42;;;;;;;4.87;3.72;;;;;;;23.85;49.55;99840.50;4336278;33;33972;-89
2021/06/27 00:18:14;;;;;;;4.30;3.67;;;;;;;23.74;49.64;99845.56;4336264;33;35162;-89
2021/06/27 00:20:44;;;;;;;5.95;3.90;;;;;;;23.82;49.91;99843.34;4323855;33;34143;-89
2021/06/27 00:23:13;;;;;;;4.10;3.70;;;;;;;23.70;50.15;99846.66;4336167;33;34764;-89
2021/06/27 00:25:42;;;;;;;5.35;3.87;;;;;;;23.66;50.33;99839.78;4336153;33;33674;-89
2021/06/27 00:28:10;;;;;;;6.95;3.75;;;;;;;23.52;50.41;99841.37;4335802;33;33766;-89
2021/06/27 00:30:39;;;;;;;5.93;3.70;;;;;;;23.56;50.31;99848.22;4336273;33;34347;-89
2021/06/27 00:33:08;;;;;;;6.32;4.00;;;;;;;23.50;50.57;99858.31;4336244;33;34265;-89
2021/06/27 00:35:36;;;;;;;4.47;4.07;;;;;;;23.43;50.73;99844.50;4336063;33;33827;-90
2021/06/27 00:38:05;;;;;;;4.25;3.83;;;;;;;23.43;50.74;99857.78;4336491;33;33755;-90
2021/06/27 00:40:34;;;;;;;5.85;4.00;;;;;;;23.53;50.57;99861.66;4324090;33;33961;-91
2021/06/27 00:43:04;;;;;;;4.60;3.75;;;;;;;23.55;50.46;99857.16;4336257;33;34830;-90
2021/06/27 00:45:32;;;;;;;4.12;3.55;;;;;;;23.61;50.23;99861.25;4335977;33;33429;-90
2021/06/27 00:48:05;;;;;;;4.12;3.75;;;;;;;23.49;50.35;99868.06;4335797;33;33198;-91
2021/06/27 00:50:46;;;;;;;4.75;4.25;;;;;;;23.49;50.43;99868.06;4336019;33;35041;-91
2021/06/27 00:53:15;;;;;;;4.00;3.37;;;;;;;23.56;50.56;99858.84;4335962;33;34257;-90
2021/06/27 00:55:43;;;;;;;4.40;4.00;;;;;;;23.46;50.65;99862.91;4323324;33;33336;-90
2021/06/27 00:58:11;;;;;;;5.75;4.03;;;;;;;23.43;50.68;99867.53;4336249;33;33733;-90
2021/06/27 01:00:41;;;;;;;5.57;4.10;;;;;;;23.47;50.79;99874.38;4323801;33;33904;-90
2021/06/27 01:03:09;;;;;;;4.68;4.15;;;;;;;23.37;50.99;99868.69;4335944;33;34385;-91
2021/06/27 01:05:39;;;;;;;4.82;4.22;;;;;;;23.37;51.06;99886.41;4336058;33;33863;-91
2021/06/27 01:08:08;;;;;;;9.05;4.57;;;;;;;23.40;50.81;99891.56;4335914;33;34272;-91
2021/06/27 01:10:36;;;;;;;6.35;4.50;;;;;;;23.28;51.15;99895.69;4336094;33;34417;-91
2021/06/27 01:13:05;;;;;;;6.90;4.43;;;;;;;23.36;51.04;99888.22;4323970;33;33231;-90
2021/06/27 01:15:35;;;;;;;4.22;3.65;;;;;;;23.36;51.03;99887.37;4336496;33;33678;-90
2021/06/27 01:18:03;;;;;;;4.60;4.20;;;;;;;23.38;51.12;99888.16;4323827;33;33550;-90
2021/06/27 01:20:34;;;;;;;5.55;4.53;;;;;;;23.35;51.22;99881.19;4323728;33;34231;-91
2021/06/27 01:23:07;;;;;;;5.15;3.95;;;;;;;23.18;51.33;99878.50;4335471;33;34364;-90
2021/06/27 01:25:39;;;;;;;4.85;4.30;;;;;;;23.17;51.27;99882.09;4312166;33;34518;-93
2021/06/27 01:28:08;;;;;;;4.72;4.10;;;;;;;23.15;51.19;99875.16;4336128;33;33853;-92
2021/06/27 01:30:36;;;;;;;4.22;3.72;;;;;;;23.08;51.58;99869.31;4324677;33;35360;-91
2021/06/27 01:33:09;;;;;;;4.78;3.97;;;;;;;23.04;51.59;99880.97;4324364;33;34494;-92
2021/06/27 01:35:38;;;;;;;4.43;4.03;;;;;;;23.23;51.29;99880.91;4324813;33;32205;-92
2021/06/27 01:38:08;;;;;;;7.87;4.28;;;;;;;23.20;51.23;99886.41;4336999;33;34169;-92
2021/06/27 01:40:36;;;;;;;5.62;4.12;;;;;;;23.11;51.42;99871.78;4312576;33;33781;-92
2021/06/27 01:43:15;;;;;;;6.10;4.65;;;;;;;23.08;51.59;99871.97;4329481;33;34820;-92
2021/06/27 01:45:50;;;;;;;5.68;4.20;;;;;;;22.99;51.89;99867.09;4327789;33;33940;-92
2021/06/27 01:48:18;;;;;;;4.55;4.05;;;;;;;23.04;51.71;99870.38;4335865;33;33827;-91
2021/06/27 01:50:49;;;;;;;4.85;4.30;;;;;;;23.08;51.78;99877.25;4323536;33;33868;-91
2021/06/27 01:53:19;;;;;;;4.32;3.92;;;;;;;22.98;52.04;99881.28;4323621;33;34590;-91
2021/06/27 01:55:48;;;;;;;6.25;3.95;;;;;;;23.04;52.01;99885.41;4334517;33;33590;-91
2021/06/27 01:58:16;;;;;;;6.07;4.45;;;;;;;23.05;52.11;99879.19;4335627;33;33565;-91
2021/06/27 02:00:44;;;;;;;8.10;4.15;;;;;;;23.01;52.02;99880.28;4323743;33;33896;-91
2021/06/27 02:03:17;;;;;;;6.12;4.35;;;;;;;22.86;52.55;99888.06;4336237;33;33956;-92
2021/06/27 02:05:46;;;;;;;7.37;4.50;;;;;;;22.91;52.28;99885.19;4323793;33;33361;-91
2021/06/27 02:08:14;;;;;;;5.37;4.12;;;;;;;22.68;53.11;99891.59;4323422;33;33279;-90
2021/06/27 02:10:42;;;;;;;6.22;4.60;;;;;;;22.71;52.81;99874.69;4335548;33;34973;-90
2021/06/27 02:13:10;;;;;;;5.70;4.35;;;;;;;22.68;52.88;99880.97;4322979;33;33607;-88
2021/06/27 02:15:38;;;;;;;6.72;4.80;;;;;;;22.78;52.79;99881.41;4335271;33;33508;-88
2021/06/27 02:18:09;;;;;;;5.90;4.30;;;;;;;22.71;52.87;99877.31;4323037;33;33585;-88
2021/06/27 02:20:37;;;;;;;4.70;4.28;;;;;;;22.81;52.86;99881.25;4347511;33;34344;-87
2021/06/27 02:23:06;;;;;;;4.50;4.10;;;;;;;22.72;52.96;99879.06;4323028;33;33895;-88
2021/06/27 02:25:33;;;;;;;6.45;4.47;;;;;;;22.72;52.89;99879.94;4322951;33;32838;-88
2021/06/27 02:28:01;;;;;;;5.35;4.62;;;;;;;22.70;52.91;99886.22;4334968;33;34356;-88
2021/06/27 02:30:30;;;;;;;5.93;4.60;;;;;;;22.68;53.09;99883.62;4335374;33;34637;-88
2021/06/27 02:32:59;;;;;;;4.87;4.35;;;;;;;22.73;53.01;99886.94;4335163;33;33610;-88
2021/06/27 02:35:27;;;;;;;5.00;4.45;;;;;;;22.57;53.17;99885.06;4321484;33;33330;-88
2021/06/27 02:37:55;;;;;;;5.37;4.15;;;;;;;22.57;53.18;99890.34;4347534;33;34069;-88
2021/06/27 02:40:23;;;;;;;5.55;4.53;;;;;;;22.52;53.14;99892.34;4334801;33;33953;-88
2021/06/27 02:42:50;;;;;;;5.25;4.75;;;;;;;22.60;52.96;99890.22;4334961;33;34805;-88
2021/06/27 02:45:19;;;;;;;4.95;4.03;;;;;;;22.55;53.01;99878.97;4347220;33;34147;-87
2021/06/27 02:47:46;;;;;;;6.32;4.75;;;;;;;22.50;53.23;99891.56;4327059;33;33351;-90
2021/06/27 02:50:16;;;;;;;5.90;4.82;;;;;;;22.43;53.31;99888.38;4322602;33;34320;-89
2021/06/27 02:52:44;;;;;;;7.03;4.75;;;;;;;22.58;53.22;99892.09;4322633;33;34183;-89
2021/06/27 02:55:13;;;;;;;5.40;4.50;;;;;;;22.58;53.18;99886.78;4322338;33;34278;-88
2021/06/27 02:57:42;;;;;;;5.28;4.78;;;;;;;22.53;53.52;99887.00;4334672;33;33341;-89
2021/06/27 03:00:13;;;;;;;6.32;4.07;;;;;;;22.46;53.54;99890.00;4334676;33;34216;-90
2021/06/27 03:02:41;;;;;;;5.68;5.07;;;;;;;22.36;53.82;99894.03;4310645;33;33618;-92
2021/06/27 03:05:10;;;;;;;5.12;4.62;;;;;;;22.43;53.76;99888.38;4334922;33;33556;-91
2021/06/27 03:07:39;;;;;;;4.97;4.47;;;;;;;22.50;53.49;99891.56;4333684;33;34494;-92
2021/06/27 03:10:11;;;;;;;5.70;4.53;;;;;;;22.48;53.66;99888.16;4331968;33;34817;-87
2021/06/27 03:12:45;;;;;;;5.32;4.70;;;;;;;22.42;53.56;99886.63;4346553;33;34472;-87
2021/06/27 03:15:14;;;;;;;5.18;4.68;;;;;;;22.39;53.84;99880.63;4321358;33;34238;-88
2021/06/27 03:17:43;;;;;;;5.97;4.65;;;;;;;22.47;53.67;99883.75;4333509;33;33958;-88
2021/06/27 03:20:12;;;;;;;7.62;5.07;;;;;;;22.53;53.66;99884.34;4334435;33;34560;-88
2021/06/27 03:22:40;;;;;;;9.23;5.35;;;;;;;22.52;53.70;99884.41;4338113;33;34276;-88
2021/06/27 03:25:09;;;;;;;6.37;4.95;;;;;;;22.50;53.93;99888.94;4339030;33;34310;-88
2021/06/27 03:27:37;;;;;;;8.32;4.53;;;;;;;22.56;53.55;99883.34;4321064;33;33262;-88
2021/06/27 03:30:06;;;;;;;5.35;4.82;;;;;;;22.67;53.68;99881.94;4346989;33;35764;-88
2021/06/27 03:32:36;;;;;;;7.22;5.25;;;;;;;22.56;53.93;99878.87;4333949;33;34545;-88
2021/06/27 03:35:05;;;;;;;7.05;5.15;;;;;;;22.51;54.08;99880.06;4322369;33;33939;-88
2021/06/27 03:37:33;;;;;;;6.95;5.22;;;;;;;22.66;53.95;99890.81;4320919;33;33285;-89
2021/06/27 03:40:03;;;;;;;5.40;4.78;;;;;;;22.54;54.23;99885.19;4321317;33;34884;-88
2021/06/27 03:42:31;;;;;;;5.90;4.50;;;;;;;22.63;53.89;99887.47;4333195;33;34198;-88
2021/06/27 03:44:59;;;;;;;6.45;5.55;;;;;;;22.58;54.07;99882.31;4332774;33;33541;-88
2021/06/27 03:47:27;;;;;;;5.20;4.70;;;;;;;22.62;54.24;99883.06;4310747;33;33449;-88
2021/06/27 03:49:55;;;;;;;5.95;4.80;;;;;;;22.59;54.45;99883.19;4334916;33;34049;-88
2021/06/27 03:52:23;;;;;;;7.30;5.10;;;;;;;22.67;54.47;99891.69;4335013;33;34041;-88
2021/06/27 03:54:51;;;;;;;5.47;4.72;;;;;;;22.62;54.49;99891.03;4334763;33;33843;-88
2021/06/27 03:57:19;;;;;;;7.03;5.00;;;;;;;22.66;54.55;99892.59;4334851;33;34142;-88
2021/06/27 03:59:46;;;;;;;6.80;5.18;;;;;;;22.62;54.68;99891.91;4322835;33;33943;-88
2021/06/27 04:02:15;;;;;;;6.12;4.95;;;;;;;22.65;54.55;99890.91;4323168;33;34184;-88
2021/06/27 04:04:43;;;;;;;7.80;5.25;;;;;;;22.63;54.66;99887.47;4334724;33;32946;-89
2021/06/27 04:07:11;;;;;;;9.57;4.60;;;;;;;22.70;54.56;99889.72;4334850;33;34118;-88
2021/06/27 04:09:39;;;;;;;5.75;5.15;;;;;;;22.75;54.27;99892.16;4347966;33;34459;-88
2021/06/27 04:12:07;;;;;;;15.05;4.90;;;;;;;22.94;53.81;99892.97;4322480;33;34888;-89
2021/06/27 04:14:35;;;;;;;14.52;5.30;;;;;;;23.07;53.66;99888.78;4323037;33;33514;-88
2021/06/27 04:17:03;;;;;;;8.05;4.80;;;;;;;23.03;53.74;99887.25;4348146;33;33983;-88
2021/06/27 04:19:32;;;;;;;7.28;4.93;;;;;;;23.03;53.34;99883.72;4335177;33;34218;-88
2021/06/27 04:22:00;;;;;;;7.72;4.78;;;;;;;23.09;53.02;99884.25;4322968;33;34183;-88
2021/06/27 04:24:28;;;;;;;5.12;4.25;;;;;;;23.21;52.37;99888.97;4334576;33;33629;-88
2021/06/27 04:26:56;;;;;;;7.00;5.45;;;;;;;23.31;51.82;99894.66;4310676;33;33587;-88
2021/06/27 04:29:24;;;;;;;5.65;4.45;;;;;;;23.40;51.53;99905.72;4334483;33;34133;-88
2021/06/27 04:31:52;;;;;;;4.78;4.28;;;;;;;23.52;50.96;99898.91;4334762;33;34556;-89
2021/06/27 04:34:20;;;;;;;10.65;4.35;;;;;;;23.62;50.58;99896.63;4322623;33;33522;-88
2021/06/27 04:36:48;;;;;;;7.37;4.00;;;;;;;23.71;50.23;99905.00;4334817;33;33863;-88
2021/06/27 04:39:16;;;;;;;7.87;4.45;;;;;;;23.83;49.68;99898.19;4334418;33;35492;-87
2021/06/27 04:41:44;;;;;;;6.90;3.97;;;;;;;24.17;49.27;99903.44;4334650;33;34012;-87
2021/06/27 04:44:12;;;;;;;6.68;4.10;;;;;;;24.25;49.21;99903.88;4334589;33;34201;-87
2021/06/27 04:46:40;;;;;;;5.72;4.25;;;;;;;24.23;49.00;99903.97;4310320;33;33985;-86
2021/06/27 04:49:09;;;;;;;7.10;4.15;;;;;;;24.28;48.16;99909.03;4322537;33;35755;-87
2021/06/27 04:51:37;;;;;;;14.40;4.22;;;;;;;24.32;48.41;99913.22;4334787;33;35292;-87
2021/06/27 04:54:05;;;;;;;7.28;4.20;;;;;;;24.25;48.37;99911.84;4334433;33;34965;-87
2021/06/27 04:56:33;;;;;;;4.55;4.03;;;;;;;24.31;48.29;99906.22;4322640;33;34301;-86
2021/06/27 04:59:02;;;;;;;12.40;4.50;;;;;;;24.41;48.30;99906.56;4333437;33;33900;-87
2021/06/27 05:01:30;;;;;;;13.75;4.40;;;;;;;24.40;47.91;99905.72;4335300;33;34102;-86
2021/06/27 05:03:58;;;;;;;7.07;3.67;;;;;;;24.52;47.57;99909.50;4329675;33;33989;-87
2021/06/27 05:06:26;;;;;;;6.35;4.00;;;;;;;24.67;47.43;99904.19;4335863;33;33828;-87
2021/06/27 05:08:54;;;;;;;4.53;3.25;;;;;;;24.74;47.04;99905.56;4323352;33;34165;-87
2021/06/27 05:11:22;;;;;;;6.40;3.87;;;;;;;24.71;46.85;99900.41;4347838;33;34056;-87
2021/06/27 05:13:50;;;;;;;3.65;3.25;;;;;;;24.92;46.53;99897.50;4323426;33;32995;-88
2021/06/27 05:16:18;;;;;;;4.60;3.33;;;;;;;24.88;46.11;99897.69;4323548;33;34038;-87
2021/06/27 05:18:46;;;;;;;4.82;3.42;;;;;;;24.99;46.10;99898.84;4335707;33;35315;-87
2021/06/27 05:21:13;;;;;;;5.18;3.90;;;;;;;25.29;46.07;99902.41;4347832;33;34231;-87
2021/06/27 05:23:41;;;;;;;4.97;3.87;;;;;;;25.28;45.72;99898.03;4335337;33;32614;-90
2021/06/27 05:26:09;;;;;;;6.20;4.32;;;;;;;25.31;45.69;99890.72;4311400;33;35277;-88
2021/06/27 05:28:37;;;;;;;5.93;4.03;;;;;;;25.39;45.72;99899.09;4335985;33;34830;-85
2021/06/27 05:31:05;;;;;;;4.50;3.30;;;;;;;25.32;45.79;99903.06;4335635;33;34105;-86
2021/06/27 05:33:33;;;;;;;5.75;3.80;;;;;;;25.33;44.89;99896.81;4334942;33;33575;-85
2021/06/27 05:36:01;;;;;;;5.50;3.60;;;;;;;25.59;44.94;99900.63;4334738;33;34157;-86
2021/06/27 05:38:29;;;;;;;4.12;3.53;;;;;;;25.60;45.17;99904.16;4323163;33;34611;-86
2021/06/27 05:40:58;;;;;;;4.68;2.95;;;;;;;25.68;44.74;99905.38;4334977;33;34784;-86
2021/06/27 05:43:25;;;;;;;3.92;2.90;;;;;;;25.77;43.51;99896.84;4323609;33;34913;-86
2021/06/27 05:45:53;;;;;;;3.58;2.95;;;;;;;25.74;43.53;99899.72;4335434;33;33850;-87
2021/06/27 05:48:21;;;;;;;6.10;3.50;;;;;;;25.80;43.52;99898.47;4335528;33;35213;-87
2021/06/27 05:50:49;;;;;;;5.47;3.10;;;;;;;25.81;43.35;99911.72;4335409;33;34152;-87
2021/06/27 05:53:17;;;;;;;3.55;2.62;;;;;;;25.76;43.19;99908.47;4335053;33;34168;-87
2021/06/27 05:55:44;;;;;;;4.30;2.90;;;;;;;25.98;42.72;99908.00;4334715;33;33850;-87
2021/06/27 05:58:12;;;;;;;8.23;3.20;;;;;;;25.95;42.97;99914.38;4332073;33;34586;-88
2021/06/27 06:00:40;;;;;;;6.05;3.00;;;;;;;26.05;43.07;99906.69;4320692;33;34074;-87
2021/06/27 06:03:08;;;;;;;3.70;2.90;;;;;;;26.08;42.50;99910.00;4333019;33;33368;-88
2021/06/27 06:05:35;;;;;;;4.28;3.42;;;;;;;26.05;42.42;99909.34;4320721;33;34351;-86
2021/06/27 06:08:03;;;;;;;4.37;3.55;;;;;;;26.01;42.95;99908.66;4333134;33;35285;-89
2021/06/27 06:10:31;;;;;;;4.15;3.17;;;;;;;26.01;42.45;99911.31;4320259;33;33636;-88
2021/06/27 06:13:00;;;;;;;6.60;3.10;;;;;;;26.25;42.63;99910.78;4333797;33;33497;-87
2021/06/27 06:15:27;;;;;;;5.62;3.28;;;;;;;26.55;42.10;99916.87;4334198;33;34214;-87
2021/06/27 06:17:55;;;;;;;5.55;3.00;;;;;;;26.66;42.17;99919.69;4334151;33;34459;-88
2021/06/27 06:20:23;;;;;;;4.25;3.22;;;;;;;26.76;41.33;99905.72;4333926;33;34411;-88
2021/06/27 06:22:51;;;;;;;4.43;3.25;;;;;;;26.75;41.54;99906.66;4333916;33;33002;-87
2021/06/27 06:25:19;;;;;;;5.68;3.15;;;;;;;27.10;40.69;99912.34;4309810;33;33374;-87
2021/06/27 06:27:46;;;;;;;9.48;3.47;;;;;;;27.10;41.03;99917.69;4333916;33;33952;-86
2021/06/27 06:30:15;;;;;;;8.52;3.55;;;;;;;27.19;40.81;99910.91;4333964;33;34247;-87
2021/06/27 06:32:43;;;;;;;8.38;2.92;;;;;;;27.19;40.30;99911.75;4321939;33;33440;-88
2021/06/27 06:35:11;;;;;;;4.15;2.70;;;;;;;27.35;39.52;99914.25;4333828;33;34363;-86
2021/06/27 06:37:39;;;;;;;7.32;3.67;;;;;;;27.42;39.57;99910.25;4333740;33;35229;-86
2021/06/27 06:40:07;;;;;;;3.67;3.03;;;;;;;27.47;39.88;99913.47;4333932;33;34071;-87
2021/06/27 06:42:35;;;;;;;4.68;3.00;;;;;;;27.52;40.49;99914.88;4324189;33;33520;-87
2021/06/27 06:45:04;;;;;;;3.90;2.85;;;;;;;27.82;39.50;99917.25;4348114;33;33884;-87
2021/06/27 06:47:33;;;;;;;3.83;3.20;;;;;;;27.86;40.20;99909.87;4333866;33;34638;-86
2021/06/27 06:50:02;;;;;;;5.05;2.83;;;;;;;27.93;39.18;99920.03;4321812;33;34069;-86
2021/06/27 06:52:30;;;;;;;3.33;2.87;;;;;;;28.07;38.17;99917.31;4333632;33;33473;-87
2021/06/27 06:54:58;;;;;;;6.78;2.60;;;;;;;28.25;37.45;99917.81;4333725;33;34596;-89
2021/06/27 06:57:25;;;;;;;4.75;2.78;;;;;;;28.14;38.74;99918.59;4321572;33;34257;-91
2021/06/27 06:59:53;;;;;;;4.97;3.03;;;;;;;28.22;38.40;99926.03;4333847;33;35327;-92
2021/06/27 07:02:21;;;;;;;3.35;2.65;;;;;;;28.39;37.95;99925.72;4322120;33;33228;-91
2021/06/27 07:04:49;;;;;;;8.63;3.65;;;;;;;28.53;37.14;99924.72;4333846;33;35160;-88
2021/06/27 07:07:17;;;;;;;3.72;3.05;;;;;;;28.82;36.84;99927.03;4333759;33;34466;-88
2021/06/27 07:09:45;;;;;;;3.80;3.28;;;;;;;28.93;36.88;99923.56;4333483;33;34549;-89
2021/06/27 07:12:14;;;;;;;6.90;3.22;;;;;;;29.10;35.90;99922.31;4333548;33;33539;-89
2021/06/27 07:14:43;;;;;;;7.60;3.03;;;;;;;29.26;36.39;99920.25;4333652;33;34256;-88
2021/06/27 07:17:11;;;;;;;4.55;3.03;;;;;;;29.36;35.32;99910.53;4333604;33;35850;-88
2021/06/27 07:19:39;;;;;;;6.55;3.00;;;;;;;29.58;34.90;99921.31;4333346;33;34635;-89
2021/06/27 07:22:07;;;;;;;3.62;2.87;;;;;;;29.65;34.79;99917.22;4322570;33;34419;-88
2021/06/27 07:24:35;;;;;;;3.85;2.65;;;;;;;29.80;34.29;99908.03;4335272;33;33748;-88
2021/06/27 07:27:03;;;;;;;5.30;3.03;;;;;;;29.93;34.43;99910.63;4323434;33;34017;-88
2021/06/27 07:29:31;;;;;;;8.15;3.25;;;;;;;29.93;33.92;99911.44;4323564;33;34698;-87
2021/06/27 07:31:59;;;;;;;3.17;2.75;;;;;;;29.76;34.83;99913.72;4323883;33;32989;-87
2021/06/27 07:34:27;;;;;;;4.22;3.15;;;;;;;29.75;33.40;99906.62;4335190;33;34717;-88
2021/06/27 07:36:55;;;;;;;3.00;2.70;;;;;;;29.92;33.27;99911.56;4335358;33;35274;-88
2021/06/27 07:39:23;;;;;;;6.12;2.83;;;;;;;29.92;34.09;99912.44;4335070;33;35271;-88
2021/06/27 07:41:51;;;;;;;4.00;3.20;;;;;;;30.12;34.02;99906.34;4334979;33;33917;-88
2021/06/27 07:44:18;;;;;;;4.18;3.12;;;;;;;30.00;34.18;99907.31;4323014;33;33860;-88
2021/06/27 07:46:46;;;;;;;3.17;2.80;;;;;;;30.20;34.01;99902.19;4323149;33;35863;-88
2021/06/27 07:49:14;;;;;;;4.03;3.00;;;;;;;30.43;33.53;99912.00;4332252;33;33564;-88
2021/06/27 07:51:42;;;;;;;2.95;2.62;;;;;;;30.50;32.74;99899.81;4333189;33;34007;-88
2021/06/27 07:54:10;;;;;;;3.35;2.60;;;;;;;30.71;32.88;99909.63;4332383;33;33784;-88
2021/06/27 07:56:37;;;;;;;3.12;2.87;;;;;;;30.58;33.08;99908.06;4334871;33;35091;-88
2021/06/27 07:59:06;;;;;;;3.67;2.97;;;;;;;30.75;32.84;99910.25;4334923;33;35242;-88
2021/06/27 08:01:34;;;;;;;4.00;3.30;;;;;;;30.62;34.05;99904.16;4322515;33;32917;-87
2021/06/27 08:04:03;;;;;;;3.45;3.05;;;;;;;30.62;33.07;99904.16;4332594;33;34874;-86
2021/06/27 08:06:31;;;;;;;5.40;3.20;;;;;;;30.72;33.40;99899.75;4318281;33;33739;-85
2021/06/27 08:08:58;;;;;;;3.83;3.10;;;;;;;30.92;32.32;99901.72;4326883;32;34539;-86
2021/06/27 08:11:26;;;;;;;5.53;3.10;;;;;;;30.88;32.11;99902.87;4323936;33;32881;-86
2021/06/27 08:13:54;;;;;;;4.00;3.08;;;;;;;30.82;32.05;99900.72;4317207;32;33524;-88
2021/06/27 08:16:22;;;;;;;4.50;3.30;;;;;;;30.73;32.33;99904.16;4334802;32;35241;-87
2021/06/27 08:18:50;;;;;;;3.47;3.17;;;;;;;30.81;32.43;99904.38;4341910;32;32782;-88
2021/06/27 08:21:19;;;;;;;7.55;3.47;;;;;;;30.94;31.79;99905.12;4331518;32;33365;-88
2021/06/27 08:23:46;;;;;;;4.12;3.17;;;;;;;30.97;31.83;99904.00;4354255;32;33334;-88
2021/06/27 08:26:14;;;;;;;5.22;3.30;;;;;;;31.13;31.78;99896.38;4372788;32;35402;-89
2021/06/27 08:28:51;;;;;;;4.78;3.37;;;;;;;31.28;31.80;99895.97;4358968;32;34565;-89
2021/06/27 08:31:23;;;;;;;4.80;3.37;;;;;;;31.03;33.86;99888.22;4345934;32;34812;-89
2021/06/27 08:33:51;;;;;;;4.68;3.20;;;;;;;31.18;32.95;99892.34;4346632;32;34633;-89
2021/06/27 08:36:22;;;;;;;6.37;3.25;;;;;;;31.40;31.80;99896.75;4346419;33;34107;-87
2021/06/27 08:38:49;;;;;;;5.68;3.22;;;;;;;31.39;32.32;99893.22;4321557;32;34517;-87
2021/06/27 08:41:17;;;;;;;4.15;3.47;;;;;;;31.55;31.84;99900.00;4335226;32;33651;-86
2021/06/27 08:43:45;;;;;;;5.85;2.97;;;;;;;31.57;31.64;99898.88;4319876;33;33561;-89
2021/06/27 08:46:14;;;;;;;5.45;3.53;;;;;;;31.53;31.01;99899.28;4348928;32;34255;-89
2021/06/27 08:48:43;;;;;;;5.68;2.92;;;;;;;31.51;31.22;99904.78;4338043;33;35338;-88
2021/06/27 08:51:12;;;;;;;5.00;3.97;;;;;;;31.61;31.26;99894.09;4346463;32;33386;-89
2021/06/27 08:53:41;;;;;;;7.47;3.58;;;;;;;31.47;31.39;99902.50;4319322;33;119100;-88
2021/06/27 08:56:10;;;;;;;5.60;3.50;;;;;;;31.60;31.35;99911.22;4340105;32;34959;-90
2021/06/27 08:58:40;;;;;;;4.57;3.65;;;;;;;31.67;30.81;99898.94;4340078;33;35014;-91
2021/06/27 09:01:18;;;;;;;5.75;3.62;;;;;;;31.55;31.25;99898.16;4334177;32;33116;-91
2021/06/27 09:03:48;;;;;;;3.95;3.47;;;;;;;31.50;32.75;99899.56;4340420;33;35293;-91
2021/06/27 09:06:30;;;;;;;4.35;3.92;;;;;;;31.69;31.10;99895.16;4349533;32;34615;-91
2021/06/27 09:09:14;;;;;;;4.53;3.67;;;;;;;31.60;30.92;99885.19;4336187;33;34023;-91
2021/06/27 09:11:58;;;;;;;5.72;4.07;;;;;;;31.58;31.01;99883.62;4345389;32;34297;-92
2021/06/27 09:14:27;;;;;;;4.70;3.58;;;;;;;31.63;30.18;99892.13;4329320;32;34207;-91
2021/06/27 09:17:12;;;;;;;6.05;3.97;;;;;;;31.59;30.81;99880.81;4346051;32;33898;-91
2021/06/27 09:20:08;;;;;;;4.95;4.00;;;;;;;31.59;32.27;99882.62;4337300;32;33892;-91
2021/06/27 09:22:40;;;;;;;4.68;3.72;;;;;;;31.45;32.24;99884.66;4348237;32;34257;-88
2021/06/27 09:25:17;;;;;;;4.75;3.78;;;;;;;31.80;31.11;99881.66;4349516;32;34623;-91
2021/06/27 09:27:59;;;;;;;4.93;3.90;;;;;;;31.70;31.65;99896.00;4348941;32;33767;-90
2021/06/27 09:30:51;;;;;;;;;;;;;;;31.72;30.95;99892.19;4354150;32;34192;-92
2021/06/27 09:33:30;;;;;;;5.03;3.80;;;;;;;31.62;31.62;99893.16;4362037;32;33953;-92
2021/06/27 09:36:08;;;;;;;4.37;3.97;;;;;;;31.86;31.45;99893.69;4336996;32;34659;-87
2021/06/27 09:38:42;;;;;;;6.05;4.12;;;;;;;31.87;30.38;99884.66;4361474;32;35419;-87
2021/06/27 09:41:10;;;;;;;5.05;3.78;;;;;;;32.00;30.43;99883.47;4349384;32;34289;-87
2021/06/27 09:43:38;;;;;;;6.62;4.10;;;;;;;32.07;29.74;99884.66;4361988;32;33806;-86
2021/06/27 09:46:12;;;;;;;4.20;3.80;;;;;;;32.08;29.58;99882.81;4349017;32;34310;-88
2021/06/27 09:48:48;;;;;;;5.20;4.22;;;;;;;32.07;29.93;99883.78;4348850;32;33953;-87
2021/06/27 09:51:17;;;;;;;6.05;4.25;;;;;;;32.07;29.97;99881.09;4349180;32;34443;-86
2021/06/27 09:53:46;;;;;;;5.95;4.32;;;;;;;31.91;29.51;99878.00;4348883;32;34782;-87
2021/06/27 09:56:16;;;;;;;6.10;4.40;;;;;;;32.02;29.00;99877.97;4348598;32;33197;-86
2021/06/27 09:59:17;;;;;;;4.12;3.72;;;;;;;32.14;28.11;99878.75;4336826;32;33897;-86
2021/06/27 10:01:45;;;;;;;5.50;4.30;;;;;;;32.42;28.31;99884.25;4353367;32;34810;-86
2021/06/27 10:04:33;;;;;;;4.72;4.20;;;;;;;32.39;27.95;99870.19;4351279;32;34223;-86
2021/06/27 10:07:07;;;;;;;4.28;3.90;;;;;;;32.12;29.60;99868.09;4348914;32;33878;-86
2021/06/27 10:09:37;;;;;;;4.60;3.75;;;;;;;31.97;31.98;99859.53;4348865;32;35310;-85
2021/06/27 10:12:16;;;;;;;4.37;3.97;;;;;;;32.26;30.40;99864.22;4348916;32;33965;-85
2021/06/27 10:14:48;;;;;;;4.12;3.75;;;;;;;32.48;28.50;99867.53;4349249;32;33554;-85
2021/06/27 10:17:22;;;;;;;5.15;4.28;;;;;;;32.56;27.77;99862.34;4360975;32;33796;-86
2021/06/27 10:19:51;;;;;;;4.55;3.97;;;;;;;32.37;27.87;99867.66;4360768;32;34956;-86
2021/06/27 10:22:20;;;;;;;4.12;3.83;;;;;;;32.62;27.98;99856.41;4336459;32;34870;-86
2021/06/27 10:24:48;;;;;;;4.50;4.10;;;;;;;32.78;28.30;99868.50;4348801;32;33810;-85
2021/06/27 10:27:16;;;;;;;4.53;4.12;;;;;;;32.53;28.23;99851.84;4348595;32;33208;-85
2021/06/27 10:29:47;;;;;;;4.47;3.85;;;;;;;32.37;28.23;99850.63;4348510;32;34289;-87
2021/06/27 10:32:17;;;;;;;4.55;4.15;;;;;;;32.51;27.63;99853.84;4336263;32;33570;-86
2021/06/27 10:34:45;;;;;;;3.95;3.55;;;;;;;32.39;28.51;99854.03;4348727;32;33565;-87
2021/06/27 10:37:16;;;;;;;4.55;3.55;;;;;;;32.74;27.87;99854.44;4362038;32;33889;-87
2021/06/27 10:40:09;;;;;;;4.53;3.58;;;;;;;32.59;27.30;99851.28;4348619;32;35422;-86
2021/06/27 10:42:49;;;;;;;5.07;3.35;;;;;;;32.61;26.66;99848.47;4348380;32;34052;-87
2021/06/27 10:45:30;;;;;;;4.32;3.45;;;;;;;32.69;26.74;99846.78;4360812;32;33714;-86
2021/06/27 10:48:00;;;;;;;3.63;3.33;;;;;;;32.80;26.54;99847.66;4348596;32;33957;-86
2021/06/27 10:50:55;;;;;;;;;;;;;;;32.49;26.36;99847.72;4336949;32;34828;-86
2021/06/27 10:53:23;;;;;;;5.15;3.58;;;;;;;32.36;26.41;99848.91;4359366;32;33883;-86
2021/06/27 10:55:58;;;;;;;3.83;3.42;;;;;;;32.38;26.12;99844.28;4346919;32;32904;-86
2021/06/27 10:58:37;;;;;;;4.45;3.22;;;;;;;32.34;26.92;99850.91;4349025;32;33890;-86
2021/06/27 11:01:09;;;;;;;3.75;3.45;;;;;;;32.46;27.51;99845.28;4348295;32;34269;-86
2021/06/27 11:03:45;;;;;;;3.97;3.45;;;;;;;32.52;26.88;99844.75;4360572;32;34026;-86
2021/06/27 11:06:12;;;;;;;3.87;3.33;;;;;;;32.71;27.00;99838.56;4348345;32;33750;-86
2021/06/27 11:08:42;;;;;;;4.10;3.30;;;;;;;32.66;27.95;99841.66;4348059;32;33384;-86
2021/06/27 11:11:20;;;;;;;3.95;3.60;;;;;;;32.53;27.99;99838.38;4335956;32;35049;-87
2021/06/27 11:14:10;;;;;;;5.22;3.40;;;;;;;32.45;26.15;99838.19;4324103;32;33601;-86
2021/06/27 11:17:05;;;;;;;4.95;3.08;;;;;;;32.26;28.66;99838.12;4348119;32;32815;-86
2021/06/27 11:19:39;;;;;;;3.70;3.40;;;;;;;32.64;27.41;99827.50;4323621;32;33544;-86
2021/06/27 11:22:20;;;;;;;5.45;3.37;;;;;;;32.85;26.71;99829.22;4349219;32;35306;-86
2021/06/27 11:24:54;;;;;;;4.20;3.70;;;;;;;32.99;26.26;99826.13;4348287;32;33745;-86
2021/06/27 11:27:35;;;;;;;4.22;3.83;;;;;;;33.08;28.44;99822.59;4347803;32;33073;-85
2021/06/27 11:30:19;;;;;;;3.62;3.33;;;;;;;33.10;27.55;99823.31;4335775;32;34154;-86
2021/06/27 11:32:48;;;;;;;4.43;3.40;;;;;;;33.10;27.14;99821.47;4360251;32;35441;-86
2021/06/27 11:35:37;;;;;;;4.18;3.78;;;;;;;33.25;25.98;99811.97;4335440;32;33543;-86
2021/06/27 11:38:06;;;;;;;4.10;3.53;;;;;;;33.35;25.78;99811.94;4335989;32;33774;-86
2021/06/27 11:40:49;;;;;;;3.95;3.55;;;;;;;33.25;26.27;99816.50;4347734;32;33342;-86
2021/06/27 11:43:17;;;;;;;3.85;3.37;;;;;;;32.99;26.99;99815.34;4336071;32;34543;-86
2021/06/27 11:45:46;;;;;;;4.95;3.97;;;;;;;32.92;26.73;99812.38;4348088;32;34734;-85
2021/06/27 11:48:14;;;;;;;3.60;3.30;;;;;;;32.71;27.02;99806.25;4347501;32;34828;-86